createdAt,value
2019-02-06T00:02:51.626Z,88.71
2019-02-06T00:08:00.496Z,88.41
2019-02-06T00:13:09.662Z,88.45
2019-02-06T00:18:18.331Z,88.28
2019-02-06T00:23:37.037Z,88.06
2019-02-06T00:28:47.213Z,87.59
2019-02-06T00:33:59.756Z,87.04
2019-02-06T00:39:16.630Z,86.71
2019-02-06T00:44:31.973Z,85.75
2019-02-06T00:49:44.642Z,84.95
2019-02-06T00:54:56.292Z,85.26
2019-02-06T01:00:06.212Z,85.26
2019-02-06T01:05:18.698Z,85.29
2019-02-06T01:10:33.251Z,85.13
2019-02-06T01:15:44.434Z,85.08
2019-02-06T01:20:52.389Z,85.14
2019-02-06T01:26:04.540Z,84.87
2019-02-06T01:31:19.932Z,84.93
2019-02-06T01:36:33.448Z,84.52
2019-02-06T01:41:47.188Z,83.83
2019-02-06T01:46:59.332Z,83.75
2019-02-06T01:52:13.814Z,83.87
2019-02-06T01:57:23.792Z,83.73
2019-02-06T02:02:33.073Z,83.57
2019-02-06T02:07:45.832Z,83.20
2019-02-06T02:12:59.458Z,83.38
2019-02-06T02:18:07.373Z,83.01
2019-02-06T02:23:17.241Z,82.73
2019-02-06T02:28:28.486Z,82.76
2019-02-06T02:33:38.536Z,82.17
2019-02-06T02:38:49.466Z,81.18
2019-02-06T02:44:02.450Z,80.56
2019-02-06T02:49:12.459Z,81.38
2019-02-06T02:54:26.863Z,81.40
2019-02-06T02:59:38.910Z,81.29
2019-02-06T03:04:54.952Z,81.58
2019-02-06T03:10:02.764Z,81.19
2019-02-06T03:15:23.627Z,81.51
2019-02-06T03:20:36.299Z,81.48
2019-02-06T03:25:48.949Z,81.21
2019-02-06T03:31:00.782Z,81.31
2019-02-06T03:36:13.038Z,81.36
2019-02-06T03:41:19.864Z,81.27
2019-02-06T03:46:33.607Z,81.28
2019-02-06T03:51:43.033Z,81.22
2019-02-06T03:56:57.193Z,81.04
2019-02-06T04:02:08.601Z,81.03
2019-02-06T04:07:15.200Z,80.64
2019-02-06T04:12:30.166Z,80.60
2019-02-06T04:17:44.817Z,80.36
2019-02-06T04:22:59.441Z,79.86
2019-02-06T04:28:11.690Z,79.96
2019-02-06T04:33:26.222Z,79.97
2019-02-06T04:38:40.967Z,79.57
2019-02-06T04:43:50.995Z,79.84
2019-02-06T04:49:00.447Z,79.81
2019-02-06T04:54:11.814Z,80.02
2019-02-06T04:59:23.663Z,79.71
2019-02-06T05:04:42.606Z,79.01
2019-02-06T05:09:54.427Z,78.97
2019-02-06T05:15:05.447Z,78.54
2019-02-06T05:20:36.450Z,78.32
2019-02-06T05:25:47.336Z,77.77
2019-02-06T05:30:59.185Z,77.70
2019-02-06T05:36:08.399Z,78.01
2019-02-06T05:41:17.384Z,77.82
2019-02-06T05:46:27.351Z,77.56
2019-02-06T05:51:42.250Z,77.65
2019-02-06T05:56:54.951Z,77.52
2019-02-06T06:02:08.844Z,77.14
2019-02-06T06:07:20.870Z,77.31
2019-02-06T06:12:31.972Z,77.24
2019-02-06T06:17:44.105Z,77.55
2019-02-06T06:22:56.845Z,77.50
2019-02-06T06:28:04.921Z,77.76
2019-02-06T06:33:14.951Z,77.23
2019-02-06T06:38:24.903Z,77.72
2019-02-06T06:43:33.036Z,77.32
2019-02-06T06:48:42.270Z,77.92
2019-02-06T06:53:52.199Z,78.76
2019-02-06T06:59:03.469Z,79.26
2019-02-06T07:04:16.200Z,79.02
2019-02-06T07:09:26.920Z,78.52
2019-02-06T07:14:39.592Z,79.02
2019-02-06T07:19:48.213Z,78.49
2019-02-06T07:24:59.056Z,78.50
2019-02-06T07:30:08.554Z,78.48
2019-02-06T07:35:19.301Z,77.88
2019-02-06T07:40:31.044Z,78.00
2019-02-06T07:45:43.682Z,78.18
2019-02-06T07:50:50.988Z,78.63
2019-02-06T07:56:02.109Z,79.14
2019-02-06T08:01:10.373Z,78.93
2019-02-06T08:06:23.043Z,78.93
2019-02-06T08:11:37.638Z,80.49
2019-02-06T08:16:52.676Z,81.99
2019-02-06T08:22:06.890Z,83.51
2019-02-06T08:27:21.187Z,85.53
2019-02-06T08:32:38.597Z,86.28
2019-02-06T08:37:51.323Z,87.11
2019-02-06T08:43:02.893Z,87.60
2019-02-06T08:48:08.744Z,88.01
2019-02-06T08:53:17.054Z,88.74
2019-02-06T08:58:25.305Z,90.04
2019-02-06T09:03:41.490Z,91.01
2019-02-06T09:08:59.946Z,92.27
2019-02-06T09:14:03.387Z,93.57
2019-02-06T09:19:22.587Z,94.26
2019-02-06T09:24:40.495Z,94.62
2019-02-06T09:29:58.600Z,94.65
2019-02-06T09:35:09.556Z,95.44
2019-02-06T09:40:24.396Z,95.61
2019-02-06T09:45:37.828Z,95.72
2019-02-06T09:50:50.419Z,96.25
2019-02-06T09:56:06.155Z,96.48
2019-02-06T10:01:33.478Z,96.70
2019-02-06T10:07:03.813Z,96.67
2019-02-06T10:12:19.174Z,96.79
2019-02-06T10:17:27.526Z,96.70
2019-02-06T10:22:41.963Z,96.56
2019-02-06T10:27:59.273Z,96.36
2019-02-06T10:33:13.387Z,96.23
2019-02-06T10:38:20.735Z,95.96
2019-02-06T10:43:32.219Z,95.70
2019-02-06T10:48:38.690Z,95.50
2019-02-06T10:53:45.979Z,95.42
2019-02-06T10:58:55.072Z,95.42
2019-02-06T11:04:09.636Z,95.21
2019-02-06T11:09:21.647Z,95.23
2019-02-06T11:14:38.794Z,95.47
2019-02-06T11:19:47.748Z,95.48
2019-02-06T11:24:58.570Z,95.81
2019-02-06T11:30:07.343Z,96.19
2019-02-06T11:35:18.630Z,96.61
2019-02-06T11:40:30.144Z,96.42
2019-02-06T11:45:45.457Z,96.70
2019-02-06T11:50:54.894Z,96.83
2019-02-06T11:56:07.505Z,96.60
2019-02-06T12:01:25.978Z,96.55
2019-02-06T12:06:35.149Z,96.80
2019-02-06T12:11:52.901Z,96.73
2019-02-06T12:17:04.762Z,96.08
2019-02-06T12:22:12.302Z,95.91
2019-02-06T12:27:20.966Z,95.87
2019-02-06T12:32:36.391Z,96.08
2019-02-06T12:37:48.897Z,95.44
2019-02-06T12:42:58.837Z,95.74
2019-02-06T12:48:06.530Z,95.74
2019-02-06T12:53:17.277Z,95.62
2019-02-06T12:58:26.210Z,95.34
2019-02-06T13:03:37.826Z,95.38
2019-02-06T13:08:54.885Z,95.43
2019-02-06T13:14:05.777Z,95.37
2019-02-06T13:19:15.266Z,95.56
2019-02-06T13:24:31.113Z,95.47
2019-02-06T13:29:42.701Z,95.47
2019-02-06T13:34:55.279Z,95.12
2019-02-06T13:40:07.755Z,95.18
2019-02-06T13:45:23.050Z,95.44
2019-02-06T13:50:34.025Z,95.62
2019-02-06T13:55:45.247Z,95.81
2019-02-06T14:00:53.319Z,95.80
2019-02-06T14:06:01.419Z,95.97
2019-02-06T14:11:09.461Z,95.85
2019-02-06T14:16:19.447Z,96.27
2019-02-06T14:21:25.979Z,96.27
2019-02-06T14:26:55.844Z,96.60
2019-02-06T14:32:53.257Z,96.61
2019-02-06T14:38:33.356Z,96.58
2019-02-06T14:44:40.777Z,97.12
2019-02-06T14:50:27.206Z,97.26
2019-02-06T14:56:20.966Z,97.16
2019-02-06T15:01:54.488Z,97.19
2019-02-06T15:07:45.805Z,97.38
2019-02-06T15:13:28.190Z,97.38
2019-02-06T15:19:16.997Z,97.64
2019-02-06T15:25:12.012Z,97.86
2019-02-06T15:30:55.235Z,97.83
2019-02-06T15:36:37.010Z,97.62
2019-02-06T15:42:04.939Z,97.66
2019-02-06T15:47:47.429Z,97.66
2019-02-06T15:53:25.138Z,97.87
2019-02-06T15:59:05.197Z,97.74
2019-02-06T16:04:58.052Z,97.75
2019-02-06T16:10:45.131Z,97.79
2019-02-06T16:16:24.473Z,97.97
2019-02-06T16:21:59.500Z,98.07
2019-02-06T16:27:40.805Z,98.49
2019-02-06T16:33:16.327Z,98.61
2019-02-06T16:39:02.193Z,98.70
2019-02-06T16:44:46.548Z,98.55
2019-02-06T16:50:36.804Z,98.51
2019-02-06T16:56:10.896Z,98.72
2019-02-06T17:01:48.721Z,99.00
2019-02-06T17:07:38.382Z,99.59
2019-02-06T17:13:15.436Z,99.59
2019-02-06T17:19:28.813Z,100.00
2019-02-06T17:25:15.921Z,100.00
2019-02-06T17:30:41.126Z,100.00
2019-02-06T17:36:19.517Z,100.00
2019-02-06T17:41:40.523Z,100.00
2019-02-06T17:47:13.718Z,99.98
2019-02-06T17:52:58.264Z,99.87
2019-02-06T17:58:10.945Z,99.94
2019-02-06T18:03:25.882Z,100.00
2019-02-06T18:08:35.882Z,100.00
2019-02-06T18:13:47.572Z,100.00
2019-02-06T18:19:00.071Z,100.00
2019-02-06T18:24:07.637Z,100.00
2019-02-06T18:29:23.302Z,100.00
2019-02-06T18:34:33.468Z,100.00
2019-02-06T18:39:43.318Z,100.00
2019-02-06T18:44:56.772Z,100.00
2019-02-06T18:50:06.956Z,100.00
2019-02-06T18:55:16.273Z,100.00
2019-02-06T19:00:34.310Z,100.00
2019-02-06T19:05:46.782Z,100.00
2019-02-06T19:10:56.871Z,100.00
2019-02-06T19:16:05.860Z,100.00
2019-02-06T19:21:16.587Z,100.00
2019-02-06T19:26:26.567Z,100.00
2019-02-06T19:31:40.358Z,100.00
2019-02-06T19:36:52.899Z,100.00
2019-02-06T19:42:02.471Z,100.00
2019-02-06T19:47:11.450Z,100.00
2019-02-06T19:52:24.273Z,100.00
2019-02-06T19:57:39.564Z,100.00
2019-02-06T20:02:52.423Z,100.00
2019-02-06T20:09:05.509Z,100.00
2019-02-06T20:14:17.674Z,100.00
2019-02-06T20:19:27.567Z,100.00
2019-02-06T20:24:41.862Z,100.00
2019-02-06T20:29:53.597Z,100.00
2019-02-06T20:35:05.422Z,100.00
2019-02-06T20:40:29.924Z,100.00
2019-02-06T20:45:39.832Z,100.00
2019-02-06T20:50:51.595Z,100.00
2019-02-06T20:56:06.438Z,100.00
2019-02-06T21:01:18.258Z,100.00
2019-02-06T21:06:27.731Z,100.00
2019-02-06T21:11:44.172Z,100.00
2019-02-06T21:16:54.186Z,100.00
2019-02-06T21:22:07.656Z,100.00
2019-02-06T21:27:17.540Z,100.00
2019-02-06T21:32:25.186Z,100.00
2019-02-06T21:37:37.733Z,100.00
2019-02-06T21:42:53.028Z,100.00
2019-02-06T21:48:04.778Z,100.00
2019-02-06T21:53:20.239Z,100.00
2019-02-06T21:58:32.742Z,100.00
2019-02-06T22:03:43.589Z,100.00
2019-02-06T22:08:55.273Z,100.00
2019-02-06T22:14:12.017Z,100.00
2019-02-06T22:19:23.307Z,100.00
2019-02-06T22:24:34.932Z,100.00
2019-02-06T22:29:48.357Z,100.00
2019-02-06T22:35:07.558Z,100.00
2019-02-06T22:40:36.727Z,100.00
2019-02-06T22:45:44.960Z,100.00
2019-02-06T22:50:56.803Z,100.00
2019-02-06T22:56:09.438Z,100.00
2019-02-06T23:01:36.774Z,100.00
2019-02-06T23:06:47.143Z,100.00
2019-02-06T23:12:03.357Z,100.00
2019-02-06T23:17:14.288Z,100.00
2019-02-06T23:22:27.062Z,100.00
2019-02-06T23:27:36.958Z,100.00
2019-02-06T23:32:48.173Z,100.00
2019-02-06T23:37:56.536Z,100.00
2019-02-06T23:43:06.117Z,100.00
2019-02-06T23:48:16.837Z,100.00
2019-02-06T23:53:34.465Z,100.00
2019-02-06T23:58:46.264Z,100.00
